Time;durP1;ratioP1;P1;durP2;ratioP2;P2;SDS_P1;SDS_P2;PMS_P1;PMS_P2;Temp;Humidity;BMP_temperature;BMP_pressure;BME280_temperature;BME280_humidity;BME280_pressure;Samples;Min_cycle;Max_cycle;Signal;HPM_P1;HPM_P2
2021/01/01 00:00:17;;;;;;;47.88;32.13;;;;;;;6.72;87.59;98734.78;1648081;85;21641;-56
2021/01/01 00:02:46;;;;;;;47.30;31.37;;;;;;;6.74;87.61;98731.25;1651062;85;21202;-56
2021/01/01 00:05:17;;;;;;;42.17;27.67;;;;;;;6.79;87.50;98731.80;1679011;85;21142;-55
2021/01/01 00:07:45;;;;;;;59.98;34.80;;;;;;;6.73;87.81;98731.55;1650721;86;21209;-56
2021/01/01 00:10:13;;;;;;;93.30;54.88;;;;;;;6.77;87.71;98719.08;1675667;85;21784;-55
2021/01/01 00:12:41;;;;;;;74.58;44.42;;;;;;;6.85;87.42;98723.95;1652748;85;21202;-56
2021/01/01 00:15:10;;;;;;;54.10;34.33;;;;;;;6.80;87.43;98726.67;1641351;86;21181;-55
2021/01/01 00:17:39;;;;;;;44.55;27.22;;;;;;;6.71;87.65;98723.69;1685221;84;21217;-55
2021/01/01 00:20:09;;;;;;;40.48;28.47;;;;;;;6.81;87.34;98722.86;1675737;85;21490;-56
2021/01/01 00:22:39;;;;;;;62.88;40.03;;;;;;;6.81;87.23;98717.45;1659774;85;21584;-56
2021/01/01 00:25:08;;;;;;;56.95;35.65;;;;;;;6.70;87.56;98712.59;1654721;85;21289;-56
2021/01/01 00:27:36;;;;;;;55.08;35.80;;;;;;;6.73;87.54;98710.69;1645503;87;21238;-56
2021/01/01 00:30:10;;;;;;;34.20;24.55;;;;;;;6.59;87.33;98673.11;1687149;85;21239;-55
2021/01/01 00:32:42;;;;;;;42.23;29.12;;;;;;;6.72;87.56;98708.27;1685138;85;21192;-55
2021/01/01 00:35:12;;;;;;;43.92;30.05;;;;;;;6.73;87.56;98701.80;1678258;85;21230;-55
2021/01/01 00:37:40;;;;;;;33.50;24.20;;;;;;;6.73;87.58;98699.09;1632287;87;21208;-55
2021/01/01 00:40:09;;;;;;;26.65;20.43;;;;;;;6.70;87.63;98700.42;1616846;87;21227;-55
2021/01/01 00:42:37;;;;;;;60.40;41.18;;;;;;;6.71;87.61;98697.18;1649856;84;21331;-55
2021/01/01 00:45:07;;;;;;;47.35;32.93;;;;;;;6.78;87.32;98691.77;1663572;85;21196;-56
2021/01/01 00:47:35;;;;;;;28.38;20.65;;;;;;;6.71;87.52;98693.13;1645626;87;21706;-57
2021/01/01 00:50:04;;;;;;;26.10;19.02;;;;;;;6.72;87.52;98690.70;1667022;86;21229;-55
2021/01/01 00:52:32;;;;;;;30.08;20.62;;;;;;;6.77;87.37;98687.97;1653900;84;21614;-55
2021/01/01 00:55:00;;;;;;;26.12;18.90;;;;;;;6.65;87.86;98684.22;1687948;84;21641;-55
2021/01/01 00:57:28;;;;;;;25.90;18.42;;;;;;;6.62;88.02;98677.19;1675781;85;21212;-55
2021/01/01 00:59:56;;;;;;;39.92;26.73;;;;;;;6.70;87.84;98688.78;1686979;84;21246;-55
2021/01/01 01:02:24;;;;;;;32.28;22.50;;;;;;;6.69;88.01;98683.13;1675919;85;21635;-55
2021/01/01 01:04:52;;;;;;;26.85;20.10;;;;;;;6.71;88.01;98670.95;1681413;84;21582;-55
2021/01/01 01:07:19;;;;;;;26.77;20.02;;;;;;;6.75;87.96;98668.52;1659890;86;21181;-55
2021/01/01 01:09:47;;;;;;;26.25;19.85;;;;;;;6.67;88.36;98665.00;1681880;85;21684;-55
2021/01/01 01:12:15;;;;;;;28.90;20.62;;;;;;;6.70;88.38;98663.91;1682229;85;21169;-56
2021/01/01 01:14:43;;;;;;;23.10;17.00;;;;;;;6.78;88.27;98660.66;1645574;86;21239;-55
2021/01/01 01:17:11;;;;;;;24.70;18.37;;;;;;;6.72;88.72;98653.65;1656313;85;21652;-55
2021/01/01 01:19:39;;;;;;;39.63;31.85;;;;;;;6.74;88.96;98662.83;1678510;85;21228;-55
2021/01/01 01:22:07;;;;;;;23.20;17.87;;;;;;;6.87;88.63;98658.22;1663613;86;21169;-55
2021/01/01 01:24:35;;;;;;;25.27;17.30;;;;;;;6.82;88.72;98644.70;1634453;87;21165;-55
2021/01/01 01:27:03;;;;;;;21.75;16.48;;;;;;;6.83;88.84;98660.66;1667821;86;21157;-55
2021/01/01 01:29:32;;;;;;;21.70;16.02;;;;;;;6.91;88.62;98662.79;1647924;85;21227;-55
2021/01/01 01:32:00;;;;;;;24.00;17.95;;;;;;;6.94;88.59;98661.45;1648412;86;21316;-55
2021/01/01 01:34:27;;;;;;;22.42;17.80;;;;;;;6.93;88.69;98658.47;1680148;84;21327;-56
2021/01/01 01:36:56;;;;;;;22.25;16.62;;;;;;;7.01;88.41;98651.94;1651058;84;21636;-56
2021/01/01 01:39:24;;;;;;;26.85;19.75;;;;;;;6.97;88.44;98654.14;1677620;85;21166;-56
2021/01/01 01:41:52;;;;;;;35.28;25.35;;;;;;;7.02;88.34;98663.58;1650749;86;21182;-56
2021/01/01 01:44:20;;;;;;;27.80;19.60;;;;;;;7.08;88.05;98648.97;1662650;85;21753;-56
2021/01/01 01:46:48;;;;;;;22.87;16.85;;;;;;;7.03;88.21;98656.28;1659939;86;21928;-55
2021/01/01 01:49:16;;;;;;;30.95;22.60;;;;;;;7.01;88.24;98646.53;1672058;86;21685;-55
2021/01/01 01:51:47;;;;;;;28.30;19.07;;;;;;;7.09;87.77;98649.22;1658518;85;21201;-56
2021/01/01 01:54:16;;;;;;;32.23;21.07;;;;;;;7.10;87.71;98651.39;1651281;86;21251;-57
2021/01/01 01:56:44;;;;;;;57.48;37.42;;;;;;;6.98;88.07;98638.97;1629266;86;21213;-56
2021/01/01 01:59:14;;;;;;;29.05;21.00;;;;;;;7.01;87.93;98638.98;1640207;87;21205;-55
2021/01/01 02:01:42;;;;;;;27.98;20.35;;;;;;;7.03;87.82;98641.39;1678443;85;21165;-55
2021/01/01 02:04:10;;;;;;;25.55;19.45;;;;;;;6.94;88.16;98643.87;1667390;85;21610;-55
2021/01/01 02:06:41;;;;;;;27.45;19.65;;;;;;;6.97;88.08;98624.38;1657799;85;21182;-55
2021/01/01 02:09:12;;;;;;;25.45;19.75;;;;;;;7.05;87.82;98617.59;1658539;85;21177;-56
2021/01/01 02:11:41;;;;;;;22.93;18.10;;;;;;;7.00;87.98;98625.17;1661647;85;21140;-55
2021/01/01 02:14:11;;;;;;;25.25;19.87;;;;;;;7.04;87.89;98611.37;1659818;85;21649;-56
2021/01/01 02:16:39;;;;;;;30.37;21.50;;;;;;;7.07;87.63;98612.16;1645409;85;21178;-56
2021/01/01 02:19:08;;;;;;;28.23;21.37;;;;;;;7.01;87.78;98624.09;1615900;85;21621;-56
2021/01/01 02:21:40;;;;;;;32.38;21.75;;;;;;;7.04;87.75;98619.48;1652496;86;21875;-56
2021/01/01 02:24:11;;;;;;;45.17;31.35;;;;;;;7.13;87.45;98615.65;1667109;85;21300;-55
2021/01/01 02:26:39;;;;;;;32.83;22.48;;;;;;;7.03;87.72;98602.97;1634114;87;21687;-55
2021/01/01 02:29:07;;;;;;;24.87;19.30;;;;;;;6.99;87.92;98615.42;1648457;85;21236;-56
2021/01/01 02:31:36;;;;;;;28.15;21.37;;;;;;;7.09;87.59;98611.33;1653856;86;21202;-56
2021/01/01 02:42:19;;;;;;;24.50;17.67;;;;;;;6.95;88.09;98594.06;1775670;79;23008;-55
2021/01/01 02:44:48;;;;;;;24.37;17.65;;;;;;;6.89;88.13;98601.94;1723177;82;21180;-55
2021/01/01 02:47:16;;;;;;;25.17;16.23;;;;;;;6.98;87.79;98585.39;1710513;83;21200;-55
2021/01/01 02:49:44;;;;;;;20.95;15.80;;;;;;;6.90;87.96;98571.10;1720681;82;21592;-54
2021/01/01 02:52:12;;;;;;;20.37;15.63;;;;;;;6.82;88.15;98571.13;1700725;83;21204;-54
2021/01/01 02:54:40;;;;;;;24.30;17.35;;;;;;;6.86;88.12;98571.38;1722331;83;21222;-55
2021/01/01 02:57:08;;;;;;;24.47;19.48;;;;;;;6.86;88.07;98565.43;1693699;83;21201;-55
2021/01/01 02:59:36;;;;;;;24.02;18.07;;;;;;;6.79;88.34;98565.45;1705307;83;21152;-54
2021/01/01 03:02:04;;;;;;;24.50;18.70;;;;;;;6.77;88.32;98556.79;1695168;83;21145;-55
2021/01/01 03:04:32;;;;;;;23.83;18.50;;;;;;;6.79;88.22;98551.93;1689329;83;21195;-54
2021/01/01 03:07:00;;;;;;;29.82;20.72;;;;;;;6.70;88.42;98557.62;1713918;83;21164;-54
2021/01/01 03:09:28;;;;;;;25.10;18.65;;;;;;;6.71;88.34;98561.95;1701969;82;21202;-54
2021/01/01 03:11:56;;;;;;;32.78;19.87;;;;;;;6.73;88.02;98553.04;1706377;83;21181;-54
2021/01/01 03:14:23;;;;;;;33.02;21.45;;;;;;;6.63;88.00;98551.16;1703858;83;21157;-55
2021/01/01 03:16:51;;;;;;;32.13;21.35;;;;;;;6.62;87.86;98561.72;1693738;85;21616;-55
2021/01/01 03:19:19;;;;;;;37.48;22.15;;;;;;;6.64;87.53;98560.08;1695318;83;21137;-56
2021/01/01 03:21:47;;;;;;;35.03;21.37;;;;;;;6.54;87.67;98554.70;1700487;83;21122;-55
2021/01/01 03:24:15;;;;;;;27.48;18.55;;;;;;;6.50;87.78;98551.20;1718504;83;21189;-56
2021/01/01 03:26:43;;;;;;;39.63;21.65;;;;;;;6.54;87.53;98544.70;1695331;83;21232;-55
2021/01/01 03:29:11;;;;;;;29.50;19.55;;;;;;;6.47;87.64;98545.53;1695398;83;21279;-55
2021/01/01 03:31:38;;;;;;;25.17;19.55;;;;;;;6.38;87.95;98541.74;1715729;83;21359;-55
2021/01/01 03:34:06;;;;;;;38.30;21.37;;;;;;;6.45;87.70;98527.41;1705030;83;21156;-56
2021/01/01 03:36:34;;;;;;;32.50;21.15;;;;;;;6.47;87.58;98534.17;1699360;83;21198;-55
2021/01/01 03:39:02;;;;;;;34.88;22.77;;;;;;;6.39;87.99;98525.27;1719050;83;21117;-55
2021/01/01 03:41:30;;;;;;;34.73;21.75;;;;;;;6.45;87.88;98518.75;1711115;82;21150;-56
2021/01/01 03:43:58;;;;;;;27.95;20.35;;;;;;;6.46;87.88;98518.22;1696604;84;21200;-55
2021/01/01 03:46:26;;;;;;;34.00;23.75;;;;;;;6.43;88.03;98516.06;1683659;84;21335;-55
2021/01/01 03:48:54;;;;;;;27.87;20.88;;;;;;;6.47;87.96;98507.68;1681692;84;21618;-55
2021/01/01 03:51:22;;;;;;;38.70;24.32;;;;;;;6.49;87.80;98509.02;1707613;84;21185;-55
2021/01/01 03:53:50;;;;;;;33.00;23.67;;;;;;;6.43;88.07;98513.36;1708373;83;21154;-56
2021/01/01 03:56:18;;;;;;;29.75;21.68;;;;;;;6.48;87.98;98509.31;1708446;84;21597;-55
2021/01/01 03:58:46;;;;;;;27.10;21.05;;;;;;;6.54;87.68;98506.03;1700046;83;21146;-56
2021/01/01 04:01:17;;;;;;;32.90;23.32;;;;;;;6.48;87.78;98499.84;1693789;83;21130;-55
2021/01/01 04:03:45;;;;;;;33.98;22.70;;;;;;;6.43;87.98;98500.66;1707330;84;21150;-55
2021/01/01 04:06:13;;;;;;;34.08;24.37;;;;;;;6.50;87.75;98497.13;1709064;84;21654;-55
2021/01/01 04:08:41;;;;;;;32.55;23.12;;;;;;;6.52;87.79;98501.45;1693735;84;21142;-55
2021/01/01 04:11:09;;;;;;;30.72;21.62;;;;;;;6.45;88.09;98499.83;1701016;84;21169;-55
2021/01/01 04:13:37;;;;;;;28.60;20.25;;;;;;;6.46;88.11;98497.41;1680461;84;21150;-55
2021/01/01 04:16:06;;;;;;;27.77;19.10;;;;;;;6.55;87.95;98486.03;1683112;84;21622;-55
2021/01/01 04:18:34;;;;;;;25.15;18.37;;;;;;;6.53;88.12;98494.94;1643996;84;21286;-55
2021/01/01 04:21:01;;;;;;;23.18;17.42;;;;;;;6.52;88.32;98500.89;1704300;84;21153;-56
2021/01/01 04:23:30;;;;;;;23.00;18.35;;;;;;;6.64;87.92;98492.48;1690427;84;21162;-56
2021/01/01 04:28:25;;;;;;;26.52;18.50;;;;;;;6.69;88.01;98483.00;1800492;79;22901;-56
2021/01/01 04:30:53;;;;;;;19.87;14.90;;;;;;;6.64;88.07;98478.95;1779345;80;21651;-56
2021/01/01 04:33:20;;;;;;;23.07;18.15;;;;;;;6.71;87.61;98472.17;1778344;80;21163;-56
2021/01/01 04:35:48;;;;;;;25.23;19.35;;;;;;;6.70;87.66;98471.89;1762748;80;21191;-56
2021/01/01 04:38:16;;;;;;;21.93;16.12;;;;;;;6.68;87.72;98469.20;1761764;80;21691;-55
2021/01/01 04:40:44;;;;;;;22.87;16.62;;;;;;;6.75;87.35;98459.71;1761820;80;21600;-55
2021/01/01 04:43:11;;;;;;;23.15;16.85;;;;;;;6.75;87.24;98457.01;1769985;80;21550;-56
2021/01/01 04:45:39;;;;;;;22.27;16.57;;;;;;;6.68;87.34;98457.85;1743379;80;21145;-55
2021/01/01 04:48:07;;;;;;;21.85;16.82;;;;;;;6.71;87.29;98457.30;1726202;83;21634;-56
2021/01/01 04:50:35;;;;;;;24.45;15.72;;;;;;;6.81;86.98;98451.02;1687839;83;21609;-55
2021/01/01 04:53:03;;;;;;;20.97;15.95;;;;;;;6.76;87.04;98450.52;1730445;82;21148;-56
2021/01/01 04:55:32;;;;;;;26.52;16.50;;;;;;;6.72;87.06;98448.64;1719445;83;21621;-54
2021/01/01 04:58:01;;;;;;;21.52;15.53;;;;;;;6.82;86.73;98443.98;1692460;83;21612;-55
2021/01/01 05:00:30;;;;;;;22.98;16.30;;;;;;;6.81;86.77;98441.55;1718893;81;21199;-56
2021/01/01 05:02:57;;;;;;;22.25;15.60;;;;;;;6.70;87.20;98454.85;1735752;81;21193;-55
2021/01/01 05:05:30;;;;;;;21.57;15.53;;;;;;;6.73;87.24;98439.45;1713266;84;21209;-55
2021/01/01 05:07:58;;;;;;;23.22;17.27;;;;;;;6.81;87.02;98429.38;1690005;84;21702;-55
2021/01/01 05:10:26;;;;;;;22.13;15.03;;;;;;;6.74;87.22;98435.09;1712174;82;21178;-55
2021/01/01 05:12:54;;;;;;;17.65;12.10;;;;;;;6.76;87.25;98439.70;1728428;82;21144;-54
2021/01/01 05:15:35;;;;;;;17.92;12.53;;;;;;;6.84;87.16;98446.40;1712450;82;21597;-55
2021/01/01 05:18:18;;;;;;;16.25;10.43;;;;;;;6.80;87.45;98465.65;1715860;82;21607;-56
2021/01/01 05:20:47;;;;;;;15.03;10.20;;;;;;;6.83;87.36;98447.51;1713270;83;21212;-54
2021/01/01 05:23:25;;;;;;;13.75;10.30;;;;;;;6.89;87.11;98466.13;1723263;83;21177;-55
2021/01/01 05:26:12;;;;;;;13.25;10.03;;;;;;;6.90;87.14;98462.89;1724485;83;21173;-54
2021/01/01 05:28:54;;;;;;;13.18;9.43;;;;;;;6.91;87.02;98457.19;1681960;84;21178;-54
2021/01/01 05:31:27;;;;;;;16.73;10.53;;;;;;;6.92;86.77;98446.64;1684580;84;21136;-54
2021/01/01 05:34:04;;;;;;;14.93;9.90;;;;;;;6.90;86.93;98455.59;1673772;84;21174;-56
2021/01/01 05:36:42;;;;;;;14.40;9.68;;;;;;;6.95;86.91;98447.97;1677571;84;21339;-56
2021/01/01 05:39:22;;;;;;;14.28;11.05;;;;;;;6.95;86.77;98437.14;1696082;84;21127;-55
2021/01/01 05:41:53;;;;;;;15.35;9.73;;;;;;;6.84;87.07;98431.52;1682528;85;21193;-54
2021/01/01 05:44:31;;;;;;;14.35;9.55;;;;;;;6.91;86.92;98433.38;1703778;84;21185;-54
2021/01/01 05:47:07;;;;;;;13.83;10.43;;;;;;;6.98;86.73;98441.99;1699438;84;21193;-55
2021/01/01 05:49:41;;;;;;;15.58;10.05;;;;;;;6.89;86.93;98439.08;1730564;82;21153;-54
2021/01/01 05:52:12;;;;;;;13.35;9.40;;;;;;;6.91;86.87;98428.78;1752321;82;21189;-54
2021/01/01 05:54:44;;;;;;;14.28;9.90;;;;;;;6.96;86.69;98426.59;1755054;81;21195;-55
2021/01/01 05:57:14;;;;;;;16.45;11.18;;;;;;;6.93;86.83;98424.45;1748822;81;21181;-54
2021/01/01 05:59:47;;;;;;;13.90;10.50;;;;;;;6.94;86.82;98428.22;1737545;81;22064;-54
2021/01/01 06:02:15;;;;;;;18.45;11.25;;;;;;;7.00;86.63;98420.36;1751479;81;21157;-55
2021/01/01 06:04:43;;;;;;;13.90;10.15;;;;;;;6.89;87.03;98426.09;1754537;82;21169;-55
2021/01/01 06:07:11;;;;;;;15.45;10.68;;;;;;;6.92;87.05;98414.17;1736604;82;21181;-55
2021/01/01 06:09:40;;;;;;;15.68;11.43;;;;;;;6.98;86.97;98421.70;1734461;81;21183;-55
2021/01/01 06:12:10;;;;;;;14.78;10.53;;;;;;;6.92;87.16;98415.52;1741655;80;21173;-55
2021/01/01 06:14:44;;;;;;;15.63;10.68;;;;;;;6.93;87.26;98424.45;1708671;82;21161;-54
2021/01/01 06:17:18;;;;;;;17.85;11.35;;;;;;;7.00;87.07;98423.06;1733943;81;21177;-55
2021/01/01 06:19:52;;;;;;;15.68;11.43;;;;;;;6.97;87.20;98416.86;1738491;82;21146;-55
2021/01/01 06:22:29;;;;;;;14.93;10.63;;;;;;;6.99;87.19;98422.78;1751875;82;21221;-55
2021/01/01 06:24:58;;;;;;;;;;;;;;;7.08;86.92;98419.50;1738600;81;21173;-54
2021/01/01 06:27:28;;;;;;;16.10;11.08;;;;;;;7.01;87.09;98413.05;1733788;80;20256;-55
2021/01/01 06:30:05;;;;;;;18.82;11.43;;;;;;;6.98;87.32;98414.39;1756751;81;21958;-55
2021/01/01 06:38:51;;;;;;;17.57;11.57;;;;;;;7.08;87.44;98410.84;1765995;79;22430;-56
2021/01/01 06:41:47;;;;;;;18.15;11.88;;;;;;;7.02;87.50;98413.29;1724081;82;21114;-55
2021/01/01 06:44:38;;;;;;;17.90;11.10;;;;;;;7.00;87.69;98416.84;1724062;82;21604;-55
2021/01/01 06:47:10;;;;;;;15.55;11.40;;;;;;;7.04;87.58;98418.44;1674140;82;21229;-55
2021/01/01 06:49:39;;;;;;;17.65;11.15;;;;;;;7.04;87.61;98426.02;1742693;82;21333;-56
2021/01/01 06:52:15;;;;;;;16.57;10.55;;;;;;;7.04;87.68;98432.78;1751792;82;21194;-55
2021/01/01 06:55:01;;;;;;;15.45;10.45;;;;;;;7.07;87.54;98425.98;1745017;82;21165;-56
2021/01/01 06:57:30;;;;;;;16.82;10.95;;;;;;;6.97;87.98;98439.05;1744126;82;21165;-55
2021/01/01 06:59:58;;;;;;;15.15;10.90;;;;;;;7.04;87.91;98424.66;1718883;82;21125;-56
2021/01/01 07:02:30;;;;;;;15.85;10.53;;;;;;;7.07;87.93;98431.41;1742920;82;21592;-55
2021/01/01 07:04:59;;;;;;;16.37;10.32;;;;;;;7.06;88.09;98437.89;1736764;82;21153;-55
2021/01/01 07:07:46;;;;;;;16.95;9.45;;;;;;;7.12;88.20;98444.34;1738811;82;21465;-56
2021/01/01 07:10:34;;;;;;;15.93;10.23;;;;;;;7.23;88.00;98441.84;1718227;82;21223;-55
2021/01/01 07:13:17;;;;;;;16.85;9.55;;;;;;;7.23;88.13;98445.89;1740829;82;21161;-55
2021/01/01 07:15:45;;;;;;;16.25;8.90;;;;;;;7.30;88.06;98447.74;1729913;82;21149;-55
2021/01/01 07:18:21;;;;;;;17.20;10.18;;;;;;;7.39;87.98;98447.96;1743505;82;21200;-55
2021/01/01 07:20:48;;;;;;;13.38;8.63;;;;;;;7.38;88.12;98459.88;1688066;85;21221;-55
2021/01/01 07:23:16;;;;;;;14.25;8.98;;;;;;;7.46;87.87;98453.87;1698728;84;21204;-55
2021/01/01 07:25:44;;;;;;;13.68;9.03;;;;;;;7.50;87.88;98460.34;1661748;85;21156;-55
2021/01/01 07:28:12;;;;;;;12.50;7.97;;;;;;;7.49;88.03;98464.94;1654349;85;21196;-55
2021/01/01 07:30:40;;;;;;;14.25;8.43;;;;;;;7.59;87.86;98465.94;1685702;84;21173;-55
2021/01/01 07:33:08;;;;;;;13.15;8.55;;;;;;;7.69;87.46;98469.92;1673022;86;21192;-55
2021/01/01 07:35:36;;;;;;;11.20;7.75;;;;;;;7.67;87.49;98469.41;1631841;86;21180;-55
2021/01/01 07:38:04;;;;;;;11.78;7.80;;;;;;;7.71;87.33;98467.75;1688262;84;21647;-55
2021/01/01 07:40:34;;;;;;;11.90;8.20;;;;;;;7.79;87.04;98472.57;1718829;82;21214;-55
2021/01/01 07:43:02;;;;;;;12.30;7.95;;;;;;;7.77;87.16;98473.38;1672207;84;21304;-55
2021/01/01 07:45:32;;;;;;;10.98;7.25;;;;;;;7.80;87.11;98479.58;1691377;82;21295;-55
2021/01/01 07:48:00;;;;;;;13.13;7.55;;;;;;;7.89;86.87;98478.70;1711636;82;21150;-55
2021/01/01 07:50:30;;;;;;;10.45;7.05;;;;;;;7.82;87.08;98476.87;1726119;82;21158;-55
2021/01/01 07:53:12;;;;;;;9.83;6.47;;;;;;;7.89;86.98;98480.06;1718179;82;21185;-56
2021/01/01 07:55:41;;;;;;;9.50;7.03;;;;;;;8.01;86.65;98483.19;1715197;82;21165;-55
2021/01/01 07:58:13;;;;;;;14.55;6.87;;;;;;;7.97;86.75;98475.94;1713576;82;21158;-55
2021/01/01 08:00:45;;;;;;;12.00;6.58;;;;;;;8.01;86.64;98489.15;1713171;82;21207;-55
2021/01/01 08:03:14;;;;;;;9.88;6.55;;;;;;;8.10;86.30;98488.81;1716374;82;21118;-55
2021/01/01 08:05:45;;;;;;;10.13;6.37;;;;;;;8.08;86.41;98490.98;1666807;84;21269;-55
2021/01/01 08:08:17;;;;;;;7.45;5.17;;;;;;;8.10;86.31;98497.48;1694192;82;21169;-55
2021/01/01 08:10:46;;;;;;;7.45;5.28;;;;;;;8.21;85.88;98502.53;1724424;82;21183;-55
2021/01/01 08:13:18;;;;;;;8.98;5.78;;;;;;;8.23;85.65;98505.75;1717376;82;21189;-54
2021/01/01 08:15:46;;;;;;;8.48;5.50;;;;;;;8.18;85.79;98511.24;1726950;82;22049;-56
2021/01/01 08:18:20;;;;;;;7.55;4.97;;;;;;;8.24;85.70;98506.56;1652734;86;21184;-55
2021/01/01 08:21:05;;;;;;;9.08;5.67;;;;;;;8.37;85.33;98511.34;1727598;82;21161;-55
2021/01/01 08:24:05;;;;;;;10.23;4.92;;;;;;;8.32;85.47;98510.05;1696624;84;21625;-57
2021/01/01 08:26:34;;;;;;;7.85;4.67;;;;;;;8.37;85.45;98518.92;1658704;86;21221;-55
2021/01/01 08:29:02;;;;;;;7.28;4.60;;;;;;;8.55;85.03;98521.45;1720312;82;21170;-57
2021/01/01 08:31:31;;;;;;;6.37;4.58;;;;;;;8.56;84.80;98524.44;1701965;82;21193;-57
2021/01/01 08:33:58;;;;;;;7.20;4.92;;;;;;;8.54;84.56;98529.90;1724734;82;21158;-57
2021/01/01 08:36:34;;;;;;;9.48;5.08;;;;;;;8.66;84.11;98540.59;1645222;86;21604;-56
2021/01/01 08:39:15;;;;;;;8.68;5.85;;;;;;;8.67;83.91;98534.09;1727045;82;21165;-58
2021/01/01 08:41:46;;;;;;;7.45;4.40;;;;;;;8.62;84.10;98542.81;1751660;82;21145;-57
2021/01/01 08:44:16;;;;;;;7.85;4.90;;;;;;;8.69;83.87;98542.73;1745219;82;21236;-58
2021/01/01 08:46:44;;;;;;;8.23;5.12;;;;;;;8.74;83.68;98545.95;1738909;82;21589;-57
2021/01/01 08:49:19;;;;;;;7.45;3.70;;;;;;;8.68;83.80;98551.17;1749622;82;21161;-57
2021/01/01 08:51:48;;;;;;;11.97;5.85;;;;;;;8.71;83.56;98554.13;1728841;82;21562;-56
2021/01/01 08:54:22;;;;;;;11.25;5.22;;;;;;;8.82;83.32;98554.81;1725545;82;21175;-56
2021/01/01 08:56:59;;;;;;;9.65;5.05;;;;;;;8.77;83.18;98557.58;1728803;82;21171;-58
2021/01/01 08:59:27;;;;;;;;;;;;;;;8.78;83.18;98560.56;1744348;82;21502;-58
2021/01/01 09:01:55;;;;;;;12.15;5.95;;;;;;;8.92;82.62;98565.55;1728676;82;20197;-58
2021/01/01 09:04:29;;;;;;;6.53;4.10;;;;;;;8.86;82.64;98563.97;1738437;82;21191;-58
2021/01/01 09:07:02;;;;;;;8.08;3.83;;;;;;;8.75;82.28;98562.49;1666807;85;21181;-58
2021/01/01 09:09:32;;;;;;;10.15;5.80;;;;;;;8.84;82.36;98567.53;1737533;82;21665;-57
2021/01/01 09:12:20;;;;;;;8.68;5.15;;;;;;;8.89;82.09;98574.28;1723631;82;21141;-57
2021/01/01 09:14:54;;;;;;;10.53;5.00;;;;;;;8.85;82.38;98581.38;1730282;82;21276;-58
2021/01/01 09:17:23;;;;;;;12.33;6.42;;;;;;;8.93;81.79;98580.72;1729567;82;21165;-56
2021/01/01 09:20:05;;;;;;;8.33;5.33;;;;;;;8.94;81.33;98572.84;1743035;82;21203;-57
2021/01/01 09:22:35;;;;;;;5.22;3.30;;;;;;;8.87;81.51;98588.66;1741079;82;23137;-57
2021/01/01 09:25:24;;;;;;;4.95;3.00;;;;;;;8.87;81.57;98590.02;1742522;82;21176;-58
2021/01/01 09:27:52;;;;;;;3.67;2.10;;;;;;;8.95;81.03;98593.47;1752421;82;21807;-59
2021/01/01 09:30:27;;;;;;;6.20;3.58;;;;;;;8.87;81.32;98596.80;1710223;82;21215;-56
2021/01/01 09:32:57;;;;;;;10.10;5.35;;;;;;;8.81;81.59;98595.25;1736185;82;21141;-58
2021/01/01 09:35:24;;;;;;;18.40;7.97;;;;;;;8.90;81.28;98595.69;1734028;82;21223;-57
2021/01/01 09:37:57;;;;;;;18.90;8.78;;;;;;;8.91;81.26;98597.85;1719970;82;21161;-58
2021/01/01 09:40:29;;;;;;;8.53;3.87;;;;;;;8.84;81.57;98597.39;1663113;86;21235;-58
2021/01/01 09:43:04;;;;;;;13.35;7.85;;;;;;;8.90;81.56;98598.40;1718875;82;21304;-58
2021/01/01 09:45:34;;;;;;;14.00;7.78;;;;;;;8.99;81.23;98602.66;1731009;82;21862;-57
2021/01/01 09:48:02;;;;;;;5.65;3.37;;;;;;;8.94;81.53;98602.16;1661572;86;21165;-57
2021/01/01 09:50:30;;;;;;;10.23;5.80;;;;;;;8.91;81.29;98593.78;1711250;82;21191;-58
2021/01/01 09:52:58;;;;;;;7.20;3.77;;;;;;;9.04;81.28;98597.70;1640292;86;21634;-56
2021/01/01 09:55:26;;;;;;;8.65;5.08;;;;;;;9.05;81.44;98600.14;1713985;82;21165;-58
2021/01/01 09:57:54;;;;;;;6.10;3.47;;;;;;;8.99;81.49;98598.05;1724144;82;21150;-57
2021/01/01 10:00:23;;;;;;;15.95;7.62;;;;;;;9.05;81.24;98603.39;1738430;82;21231;-57
2021/01/01 10:02:50;;;;;;;10.68;6.33;;;;;;;8.94;81.17;98569.59;1724734;82;21182;-58
2021/01/01 10:05:19;;;;;;;11.20;6.50;;;;;;;9.13;81.25;98595.98;1729431;82;21598;-57
2021/01/01 10:07:47;;;;;;;9.55;5.37;;;;;;;9.13;81.41;98598.15;1734214;82;21232;-57
2021/01/01 10:10:15;;;;;;;13.55;7.10;;;;;;;9.20;80.75;98591.81;1715592;82;21696;-58
2021/01/01 10:12:43;;;;;;;7.70;4.45;;;;;;;9.25;80.50;98595.00;1724564;82;21141;-58
2021/01/01 10:15:11;;;;;;;9.83;5.62;;;;;;;9.22;80.78;98594.23;1728314;82;21165;-58
2021/01/01 10:17:39;;;;;;;11.57;6.00;;;;;;;9.20;80.68;98597.25;1695951;82;21207;-57
2021/01/01 10:20:07;;;;;;;11.75;6.65;;;;;;;9.33;80.38;98603.33;1711639;82;21300;-57
2021/01/01 10:22:35;;;;;;;9.75;6.25;;;;;;;9.33;80.24;98604.69;1697941;82;21174;-57
2021/01/01 10:25:04;;;;;;;5.05;3.20;;;;;;;9.26;80.29;98601.52;1717310;82;21922;-57
2021/01/01 10:27:32;;;;;;;5.50;3.22;;;;;;;9.25;79.56;98609.39;1720827;82;21175;-57
2021/01/01 10:30:00;;;;;;;4.33;2.98;;;;;;;9.23;79.40;98612.14;1703227;82;21183;-56
2021/01/01 10:32:28;;;;;;;5.58;3.75;;;;;;;9.11;79.28;98620.69;1723911;82;21114;-57
2021/01/01 10:34:56;;;;;;;5.72;3.12;;;;;;;9.03;79.62;98627.32;1737927;82;21304;-57
2021/01/01 10:37:25;;;;;;;5.95;3.60;;;;;;;9.07;79.45;98630.50;1691150;82;21162;-57
2021/01/01 10:39:52;;;;;;;3.67;2.33;;;;;;;9.04;79.40;98625.66;1661965;84;21161;-58
2021/01/01 10:42:27;;;;;;;4.25;2.72;;;;;;;8.92;79.75;98634.77;1738035;82;21673;-57
2021/01/01 10:44:55;;;;;;;3.75;2.92;;;;;;;8.88;80.06;98641.31;1737967;82;21668;-57
2021/01/01 10:47:23;;;;;;;4.40;3.20;;;;;;;8.88;80.11;98639.95;1720343;82;21142;-57
2021/01/01 10:49:51;;;;;;;6.65;4.90;;;;;;;8.72;80.35;98644.44;1628007;87;21658;-57
2021/01/01 10:52:19;;;;;;;7.60;5.55;;;;;;;8.59;79.76;98648.64;1711624;82;21195;-57
2021/01/01 10:54:47;;;;;;;8.10;6.40;;;;;;;8.54;79.35;98650.59;1717845;82;21134;-57
2021/01/01 10:57:15;;;;;;;7.65;5.92;;;;;;;8.43;79.54;98652.02;1738420;82;21193;-57
2021/01/01 10:59:43;;;;;;;8.18;6.00;;;;;;;8.34;79.81;98648.84;1717594;82;21158;-56
2021/01/01 11:02:11;;;;;;;9.45;6.80;;;;;;;8.36;79.80;98647.46;1662961;86;21217;-58
2021/01/01 11:04:38;;;;;;;9.30;7.00;;;;;;;8.38;79.78;98658.86;1709024;84;21150;-55
2021/01/01 11:07:06;;;;;;;10.05;6.75;;;;;;;8.30;79.78;98655.92;1663131;86;21189;-57
2021/01/01 11:09:34;;;;;;;8.83;6.92;;;;;;;8.22;79.73;98652.45;1730441;82;21170;-57
2021/01/01 11:12:04;;;;;;;8.68;6.30;;;;;;;8.23;79.08;98656.22;1738449;82;21153;-58
2021/01/01 12:25:57;;;;;;;8.48;6.28;;;;;;;7.85;76.06;98716.09;1722497;83;21137;-57
2021/01/01 12:28:25;;;;;;;8.63;6.20;;;;;;;7.82;75.58;98720.72;1724754;83;21173;-57
2021/01/01 12:30:58;;;;;;;9.18;6.67;;;;;;;7.94;74.95;98729.31;1724640;83;21580;-57
2021/01/01 12:33:26;;;;;;;15.23;9.35;;;;;;;8.00;75.01;98739.05;1724621;83;21181;-57
2021/01/01 12:35:54;;;;;;;9.55;7.12;;;;;;;7.93;75.27;98743.97;1722654;83;21200;-57
2021/01/01 12:38:22;;;;;;;9.08;6.80;;;;;;;7.86;75.23;98740.75;1724849;83;21619;-57
2021/01/01 12:40:50;;;;;;;8.68;5.87;;;;;;;7.97;75.00;98746.94;1724900;83;21188;-57
2021/01/01 12:43:18;;;;;;;10.48;7.47;;;;;;;7.98;74.68;98745.28;1724530;83;21184;-57
2021/01/01 12:45:45;;;;;;;8.28;6.12;;;;;;;7.89;75.03;98763.77;1698722;83;21604;-57
2021/01/01 12:48:15;;;;;;;9.38;6.55;;;;;;;7.81;75.29;98758.91;1694633;84;21185;-57
2021/01/01 12:50:43;;;;;;;11.50;7.30;;;;;;;7.82;75.28;98761.89;1650662;85;21169;-57
2021/01/01 12:53:11;;;;;;;9.53;7.00;;;;;;;7.78;75.24;98760.83;1646731;86;21204;-58
2021/01/01 12:55:39;;;;;;;8.80;6.67;;;;;;;7.69;75.46;98763.28;1702678;83;21682;-58
2021/01/01 12:58:08;;;;;;;9.38;6.60;;;;;;;7.59;75.33;98770.62;1650480;87;21196;-58
2021/01/01 13:00:35;;;;;;;9.28;6.33;;;;;;;7.56;75.46;98769.29;1646269;86;21629;-57
2021/01/01 13:03:03;;;;;;;9.10;6.92;;;;;;;7.58;75.47;98773.09;1600903;87;21147;-59
2021/01/01 13:05:31;;;;;;;11.85;7.95;;;;;;;7.48;75.84;98773.37;1646436;86;21216;-56
2021/01/01 13:07:59;;;;;;;8.83;6.65;;;;;;;7.38;76.17;98770.69;1684917;83;21687;-57
2021/01/01 13:10:29;;;;;;;8.70;6.30;;;;;;;7.48;76.16;98780.14;1694849;83;21140;-58
2021/01/01 13:12:56;;;;;;;9.63;5.80;;;;;;;7.46;76.24;98781.51;1687176;84;21183;-58